Terminal Aerodrome Forecast
Issued by NWS Mt. Holly, NJ

Home | Current Version | Previous Version | Text Only | Print | Product List | Glossary On
Versions: 1 2 3 4 5 6 7 8 9 10 11 12 13 14 15 16
000
FTUS41 KPHI 012000 AAB
TAFTTN
TAF AMD
KTTN 012014Z 0120/0218 16006KT P6SM SCT025 OVC070
      TEMPO 0120/0122 5SM -SHRA OVC040
     FM020100 VRB03KT P6SM OVC050
     FM020700 VRB02KT 5SM -SHRA BR OVC050
     FM021300 06008KT 5SM -SHRA BR OVC025=

USA.gov is the U.S. government's official web portal to all federal, state and local government web resources and services.